Big Bear Station Historical Data
Daily Summary for January 5, 2019 Units:  English    Metric   Both
Next Day »
Daily Weekly Monthly Yearly Custom
  High: Low: Average:
Temperature: 39.7 °F 29.5 °F 34.2 °F
Dew Point: 29.6 °F 3.7 °F 19.6 °F
Humidity: 96% 26% 61%
Wind Speed: 8.3mph 0.0mph 1.7mph
Wind Gust: -999.0mph - -
Wind- - South
Pressure: 23.41 in 23.30 in -
Precipitation: 0.00 in    
Historical Graphs
 
 
Tabular Data for January 5, 2019
Time Temperature Dew Point Pressure Wind Wind Speed Wind Gust Humidity Rainfall Rate (Hourly)
00:00 35.4 °F 3.9 °F 23.41 in South 2.2 mph -999.0 mph 26% 0.00 in
00:15 34.2 °F 6.0 °F 23.41 in Calm   -999.0 mph 30% 0.00 in
00:30 33.3 °F 7.9 °F 23.41 in South 1.1 mph -999.0 mph 34% 0.00 in
00:45 33.3 °F 3.7 °F 23.41 in Calm   -999.0 mph 28% 0.00 in
01:00 32.5 °F 10.3 °F 23.41 in Calm   -999.0 mph 39% 0.00 in
01:16 32.2 °F 9.4 °F 23.41 in Calm   -999.0 mph 38% 0.00 in
01:31 32.2 °F 11.7 °F 23.41 in SSE 1.7 mph -999.0 mph 42% 0.00 in
01:46 32.9 °F 12.3 °F 23.41 in Calm   -999.0 mph 42% 0.00 in
02:01 33.1 °F 12.5 °F 23.40 in Calm   -999.0 mph 42% 0.00 in
02:16 33.6 °F 11.8 °F 23.39 in Calm   -999.0 mph 40% 0.00 in
02:32 33.6 °F 11.8 °F 23.39 in Calm   -999.0 mph 40% 0.00 in
02:47 33.4 °F 13.3 °F 23.39 in SSE 2.2 mph -999.0 mph 43% 0.00 in
03:02 34.0 °F 11.0 °F 23.38 in NE 1.1 mph -999.0 mph 38% 0.00 in
03:17 34.2 °F 11.2 °F 23.37 in Calm   -999.0 mph 38% 0.00 in
03:33 34.5 °F 12.1 °F 23.37 in ESE 1.7 mph -999.0 mph 39% 0.00 in
03:48 35.4 °F 12.3 °F 23.37 in ENE 3.7 mph -999.0 mph 38% 0.00 in
04:03 35.4 °F 14.0 °F 23.36 in Calm   -999.0 mph 41% 0.00 in
04:18 35.2 °F 13.8 °F 23.35 in Calm   -999.0 mph 41% 0.00 in
04:33 35.4 °F 12.3 °F 23.35 in Calm   -999.0 mph 38% 0.00 in
04:49 39.0 °F 10.2 °F 23.35 in South 5.3 mph -999.0 mph 30% 0.00 in
05:04 39.7 °F 10.0 °F 23.35 in SSW 2.7 mph -999.0 mph 29% 0.00 in
05:19 39.4 °F 10.5 °F 23.35 in Calm   -999.0 mph 30% 0.00 in
05:34 38.7 °F 10.6 °F 23.34 in WNW 2.7 mph -999.0 mph 31% 0.00 in
05:49 38.3 °F 10.3 °F 23.35 in WNW 2.2 mph -999.0 mph 31% 0.00 in
06:05 37.8 °F 10.5 °F 23.35 in SSW 1.1 mph -999.0 mph 32% 0.00 in
06:20 37.4 °F 8.8 °F 23.35 in Calm   -999.0 mph 30% 0.00 in
06:36 37.6 °F 8.2 °F 23.36 in Calm   -999.0 mph 29% 0.00 in
06:51 37.2 °F 10.0 °F 23.35 in WSW 1.1 mph -999.0 mph 32% 0.00 in
07:06 37.0 °F 9.1 °F 23.36 in SSE 2.2 mph -999.0 mph 31% 0.00 in
07:21 37.2 °F 8.6 °F 23.36 in Calm   -999.0 mph 30% 0.00 in
07:36 37.0 °F 10.5 °F 23.35 in ENE 2.7 mph -999.0 mph 33% 0.00 in
07:52 37.2 °F 9.3 °F 23.37 in NW 5.3 mph -999.0 mph 31% 0.00 in
08:07 37.0 °F 10.5 °F 23.37 in Calm   -999.0 mph 33% 0.00 in
08:22 37.0 °F 10.5 °F 23.38 in Calm   -999.0 mph 33% 0.00 in
08:37 37.6 °F 10.4 °F 23.38 in Calm   -999.0 mph 32% 0.00 in
08:52 38.7 °F 9.9 °F 23.39 in ESE 6.8 mph -999.0 mph 30% 0.00 in
09:08 38.7 °F 11.3 °F 23.39 in West 1.1 mph -999.0 mph 32% 0.00 in
09:24 37.9 °F 11.3 °F 23.40 in South 3.7 mph -999.0 mph 33% 0.00 in
09:39 38.1 °F 11.5 °F 23.40 in Calm   -999.0 mph 33% 0.00 in
09:54 38.1 °F 12.8 °F 23.39 in SSE 5.3 mph -999.0 mph 35% 0.00 in
10:09 38.1 °F 14.7 °F 23.39 in NNE 2.7 mph -999.0 mph 38% 0.00 in
10:25 37.6 °F 14.3 °F 23.38 in Calm   -999.0 mph 38% 0.00 in
10:40 38.7 °F 14.6 °F 23.37 in Calm   -999.0 mph 37% 0.00 in
10:56 39.0 °F 15.5 °F 23.37 in NE 2.7 mph -999.0 mph 38% 0.00 in
11:11 38.7 °F 15.2 °F 23.37 in SSW 3.2 mph -999.0 mph 38% 0.00 in
11:26 38.5 °F 15.1 °F 23.36 in SSW 3.7 mph -999.0 mph 38% 0.00 in
11:41 38.1 °F 15.9 °F 23.35 in ESE 6.8 mph -999.0 mph 40% 0.00 in
11:57 37.8 °F 17.8 °F 23.35 in SW 7.3 mph -999.0 mph 44% 0.00 in
12:12 37.2 °F 22.5 °F 23.34 in SW 4.7 mph -999.0 mph 55% 0.00 in
12:27 36.7 °F 26.4 °F 23.34 in ESE 6.3 mph -999.0 mph 66% 0.00 in
12:43 36.1 °F 27.6 °F 23.34 in SE 7.3 mph -999.0 mph 71% 0.00 in
12:58 36.7 °F 28.5 °F 23.33 in SSW 5.8 mph -999.0 mph 72% 0.00 in
13:13 36.9 °F 27.0 °F 23.33 in NNE 2.2 mph -999.0 mph 67% 0.00 in
13:29 36.3 °F 26.7 °F 23.32 in SW 3.2 mph -999.0 mph 68% 0.00 in
13:44 36.9 °F 25.9 °F 23.32 in SSW 4.7 mph -999.0 mph 64% 0.00 in
13:59 35.8 °F 25.6 °F 23.32 in SW 2.7 mph -999.0 mph 66% 0.00 in
14:14 35.8 °F 27.3 °F 23.32 in SE 4.7 mph -999.0 mph 71% 0.00 in
14:30 35.8 °F 28.3 °F 23.32 in East 2.7 mph -999.0 mph 74% 0.00 in
14:45 34.5 °F 28.3 °F 23.32 in South 3.7 mph -999.0 mph 78% 0.00 in
15:00 34.0 °F 28.8 °F 23.32 in SE 1.1 mph -999.0 mph 81% 0.00 in
15:15 33.4 °F 28.8 °F 23.32 in Calm   -999.0 mph 83% 0.00 in
15:30 32.5 °F 28.5 °F 23.32 in Calm   -999.0 mph 85% 0.00 in
15:46 32.0 °F 28.6 °F 23.32 in Calm   -999.0 mph 87% 0.00 in
16:01 31.6 °F 28.7 °F 23.33 in West 3.2 mph -999.0 mph 89% 0.00 in
16:16 31.8 °F 28.9 °F 23.32 in NNW 1.1 mph -999.0 mph 89% 0.00 in
16:31 31.5 °F 28.9 °F 23.33 in Calm   -999.0 mph 90% 0.00 in
16:46 30.7 °F 28.4 °F 23.32 in Calm   -999.0 mph 91% 0.00 in
17:02 30.4 °F 28.4 °F 23.33 in Calm   -999.0 mph 92% 0.00 in
17:17 30.0 °F 28.0 °F 23.33 in Calm   -999.0 mph 92% 0.00 in
17:32 29.7 °F 27.9 °F 23.32 in NW 6.3 mph -999.0 mph 93% 0.00 in
17:47 29.5 °F 27.7 °F 23.32 in Calm   -999.0 mph 93% 0.00 in
18:02 29.5 °F 28.0 °F 23.32 in Calm   -999.0 mph 94% 0.00 in
18:18 29.5 °F 28.0 °F 23.32 in Calm   -999.0 mph 94% 0.00 in
18:33 29.5 °F 28.0 °F 23.32 in Calm   -999.0 mph 94% 0.00 in
18:48 29.5 °F 28.0 °F 23.32 in Calm   -999.0 mph 94% 0.00 in
19:03 29.8 °F 28.3 °F 23.30 in Calm   -999.0 mph 94% 0.00 in
19:19 29.8 °F 28.3 °F 23.30 in South 2.7 mph -999.0 mph 94% 0.00 in
19:34 30.0 °F 28.5 °F 23.31 in SSW 8.3 mph -999.0 mph 94% 0.00 in
19:49 30.0 °F 28.7 °F 23.31 in South 2.7 mph -999.0 mph 95% 0.00 in
20:04 30.0 °F 29.0 °F 23.31 in South 4.7 mph -999.0 mph 96% 0.00 in
20:19 30.2 °F 29.2 °F 23.31 in Calm   -999.0 mph 96% 0.00 in
20:35 30.4 °F 29.4 °F 23.31 in SSW 2.2 mph -999.0 mph 96% 0.00 in
20:50 30.4 °F 29.4 °F 23.30 in SSW 2.2 mph -999.0 mph 96% 0.00 in
21:05 30.6 °F 29.6 °F 23.31 in Calm   -999.0 mph 96% 0.00 in
21:20 30.7 °F 29.4 °F 23.31 in Calm   -999.0 mph 95% 0.00 in
21:35 30.7 °F 29.4 °F 23.31 in Calm   -999.0 mph 95% 0.00 in
21:51 30.7 °F 29.4 °F 23.32 in Calm   -999.0 mph 95% 0.00 in
22:06 30.6 °F 29.3 °F 23.32 in Calm   -999.0 mph 95% 0.00 in
22:21 30.4 °F 29.1 °F 23.31 in Calm   -999.0 mph 95% 0.00 in
22:36 30.2 °F 28.9 °F 23.31 in Calm   -999.0 mph 95% 0.00 in
22:51 30.0 °F 28.7 °F 23.30 in Calm   -999.0 mph 95% 0.00 in
23:07 30.0 °F 28.7 °F 23.31 in Calm   -999.0 mph 95% 0.00 in
23:22 29.8 °F 28.5 °F 23.31 in Calm   -999.0 mph 95% 0.00 in
23:37 29.7 °F 28.4 °F 23.31 in Calm   -999.0 mph 95% 0.00 in
23:52 29.7 °F 28.4 °F 23.31 in Calm   -999.0 mph 95% 0.00 in
Big Bear CA Weather